createdAt,value
2018-11-27T00:04:16.520Z,7.40
2018-11-27T00:09:45.822Z,7.45
2018-11-27T00:15:15.175Z,6.85
2018-11-27T00:20:44.461Z,6.28
2018-11-27T00:26:13.738Z,7.50
2018-11-27T00:31:45.053Z,6.80
2018-11-27T00:37:14.471Z,6.83
2018-11-27T00:42:44.435Z,7.28
2018-11-27T00:48:14.315Z,6.62
2018-11-27T00:53:44.302Z,7.55
2018-11-27T00:59:16.974Z,7.37
2018-11-27T01:04:46.152Z,7.08
2018-11-27T01:10:21.819Z,7.50
2018-11-27T01:15:55.032Z,7.90
2018-11-27T01:21:25.065Z,7.83
2018-11-27T01:26:55.048Z,7.53
2018-11-27T01:32:24.266Z,7.22
2018-11-27T01:37:55.112Z,7.97
2018-11-27T01:43:24.396Z,6.85
2018-11-27T01:48:53.695Z,7.62
2018-11-27T01:54:22.938Z,7.42
2018-11-27T01:59:52.231Z,7.47
2018-11-27T02:05:22.158Z,7.72
2018-11-27T02:10:51.419Z,7.67
2018-11-27T02:16:20.759Z,8.50
2018-11-27T02:21:50.015Z,7.72
2018-11-27T02:27:19.194Z,7.47
2018-11-27T02:32:48.511Z,7.62
2018-11-27T02:38:17.730Z,6.78
2018-11-27T02:43:46.966Z,7.47
2018-11-27T02:49:16.249Z,8.90
2018-11-27T02:54:45.539Z,7.12
2018-11-27T03:00:18.007Z,7.25
2018-11-27T03:05:47.255Z,7.65
2018-11-27T03:11:16.478Z,7.78
2018-11-27T03:16:46.698Z,8.10
2018-11-27T03:22:15.906Z,8.93
2018-11-27T03:27:46.237Z,7.15
2018-11-27T03:33:15.423Z,8.03
2018-11-27T03:38:45.585Z,9.03
2018-11-27T03:44:14.774Z,7.78
2018-11-27T03:49:45.080Z,8.33
2018-11-27T03:55:15.471Z,8.35
2018-11-27T04:00:45.101Z,14.25
2018-11-27T04:06:15.391Z,10.30
2018-11-27T04:11:44.614Z,8.03
2018-11-27T04:17:13.982Z,7.90
2018-11-27T04:22:44.157Z,6.05
2018-11-27T04:28:13.377Z,7.60
2018-11-27T04:33:42.606Z,7.97
2018-11-27T04:39:11.812Z,7.35
2018-11-27T04:44:42.117Z,6.70
2018-11-27T04:50:13.867Z,7.45
2018-11-27T04:55:43.062Z,7.97
2018-11-27T05:01:12.254Z,7.87
2018-11-27T05:06:41.518Z,7.95
2018-11-27T05:12:10.779Z,7.08
2018-11-27T05:17:40.066Z,7.33
2018-11-27T05:23:09.267Z,7.40
2018-11-27T05:28:39.527Z,8.28
2018-11-27T05:34:09.750Z,7.95
2018-11-27T05:39:39.081Z,7.75
2018-11-27T05:45:13.880Z,8.28
2018-11-27T05:50:43.138Z,8.35
2018-11-27T05:56:18.178Z,8.00
2018-11-27T06:01:53.357Z,8.25
2018-11-27T06:07:32.609Z,8.88
2018-11-27T06:13:02.914Z,9.63
2018-11-27T06:18:32.162Z,7.60
2018-11-27T06:24:01.435Z,8.63
2018-11-27T06:29:30.704Z,8.68
2018-11-27T06:35:00.009Z,8.78
2018-11-27T06:40:31.584Z,8.45
2018-11-27T06:46:01.015Z,10.28
2018-11-27T06:51:30.393Z,9.03
2018-11-27T06:56:59.783Z,9.18
2018-11-27T07:02:35.328Z,9.88
2018-11-27T07:08:04.667Z,8.20
2018-11-27T07:13:34.015Z,8.85
2018-11-27T07:19:03.331Z,9.05
2018-11-27T07:24:52.266Z,11.22
2018-11-27T07:30:23.757Z,9.88
2018-11-27T07:35:53.160Z,10.08
2018-11-27T07:41:22.603Z,11.28
2018-11-27T07:46:52.037Z,11.20
2018-11-27T07:52:21.393Z,9.95
2018-11-27T07:57:52.008Z,10.50
2018-11-27T08:03:26.118Z,10.53
2018-11-27T08:08:55.456Z,10.80
2018-11-27T08:14:24.812Z,10.50
2018-11-27T08:19:54.442Z,9.55
2018-11-27T08:25:27.883Z,12.70
2018-11-27T08:30:57.291Z,10.10
2018-11-27T08:36:26.551Z,10.95
2018-11-27T08:41:55.811Z,11.00
2018-11-27T08:47:25.030Z,11.38
2018-11-27T08:52:58.908Z,11.35
2018-11-27T08:58:28.207Z,11.68
2018-11-27T09:03:57.601Z,11.48
2018-11-27T09:09:26.923Z,9.98
2018-11-27T09:14:56.216Z,12.20
2018-11-27T09:20:25.570Z,10.18
2018-11-27T09:25:54.942Z,9.70
2018-11-27T09:31:24.403Z,11.70
2018-11-27T09:36:53.739Z,11.83
2018-11-27T09:42:23.119Z,9.23
2018-11-27T09:47:54.130Z,10.28
2018-11-27T09:53:30.121Z,9.98
2018-11-27T09:58:59.632Z,9.80
2018-11-27T10:04:31.067Z,10.63
2018-11-27T10:10:00.429Z,9.65
2018-11-27T10:15:30.157Z,10.28
2018-11-27T10:20:59.538Z,10.88
2018-11-27T10:26:28.865Z,11.90
2018-11-27T10:31:58.377Z,11.38
2018-11-27T10:37:32.606Z,10.32
2018-11-27T10:43:02.242Z,11.90
2018-11-27T10:48:31.888Z,11.18
2018-11-27T10:54:01.502Z,11.80
2018-11-27T10:59:33.141Z,11.57
2018-11-27T11:05:05.270Z,12.35
2018-11-27T11:10:34.770Z,10.93
2018-11-27T11:16:04.360Z,14.03
2018-11-27T11:21:33.893Z,13.48
2018-11-27T11:27:03.388Z,13.85
2018-11-27T11:32:32.856Z,13.40
2018-11-27T11:38:02.178Z,13.03
2018-11-27T11:43:31.553Z,14.78
2018-11-27T11:49:01.955Z,15.65
2018-11-27T11:54:30.372Z,15.85
2018-11-27T11:59:59.791Z,15.95
2018-11-27T12:05:29.241Z,17.30
2018-11-27T12:10:58.672Z,16.95
2018-11-27T12:16:28.696Z,17.77
2018-11-27T12:21:57.351Z,19.25
2018-11-27T12:27:26.837Z,18.35
2018-11-27T12:32:56.096Z,16.50
2018-11-27T12:38:25.404Z,14.60
2018-11-27T12:43:54.776Z,17.37
2018-11-27T12:49:24.171Z,17.10
2018-11-27T12:54:53.529Z,16.42
2018-11-27T13:00:24.592Z,16.62
2018-11-27T13:05:53.897Z,16.97
2018-11-27T13:11:25.290Z,16.37
2018-11-27T13:16:54.830Z,16.50
2018-11-27T13:22:24.094Z,17.12
2018-11-27T13:27:54.830Z,15.90
2018-11-27T13:33:59.523Z,16.50
2018-11-27T13:39:36.944Z,20.40
2018-11-27T13:45:10.330Z,16.55
2018-11-27T13:50:39.644Z,14.28
2018-11-27T13:56:09.035Z,16.90
2018-11-27T14:01:38.295Z,16.40
2018-11-27T14:07:07.554Z,15.28
2018-11-27T14:12:36.939Z,15.28
2018-11-27T14:18:08.780Z,15.25
2018-11-27T14:23:38.079Z,15.03
2018-11-27T14:29:07.821Z,14.75
2018-11-27T14:34:37.438Z,14.30
2018-11-27T14:40:26.170Z,16.32
2018-11-27T14:45:57.502Z,16.15
2018-11-27T14:51:30.354Z,15.85
2018-11-27T14:56:59.648Z,15.88
2018-11-27T15:02:28.989Z,14.93
2018-11-27T15:07:58.290Z,15.72
2018-11-27T15:13:33.716Z,15.80
2018-11-27T15:19:04.982Z,15.53
2018-11-27T15:24:34.300Z,16.23
2018-11-27T15:30:04.422Z,18.07
2018-11-27T15:35:35.043Z,16.90
2018-11-27T15:41:07.023Z,18.35
2018-11-27T15:46:42.129Z,18.17
2018-11-27T15:52:11.473Z,17.42
2018-11-27T15:57:42.915Z,17.05
2018-11-27T16:03:15.631Z,16.17
2018-11-27T16:08:44.946Z,16.87
2018-11-27T16:14:18.543Z,16.67
2018-11-27T16:19:47.863Z,15.08
2018-11-27T16:25:19.376Z,14.78
2018-11-27T16:30:48.654Z,12.82
2018-11-27T16:36:18.121Z,13.70
2018-11-27T16:41:47.419Z,12.13
2018-11-27T16:47:16.786Z,9.75
2018-11-27T16:52:47.572Z,11.15
2018-11-27T16:58:16.963Z,9.55
2018-11-27T17:03:46.367Z,10.13
2018-11-27T17:09:15.892Z,9.55
2018-11-27T17:14:45.956Z,9.00
2018-11-27T17:20:32.079Z,8.43
2018-11-27T17:26:04.083Z,8.90
2018-11-27T17:31:35.549Z,8.40
2018-11-27T17:37:07.939Z,9.68
2018-11-27T17:42:39.041Z,8.30
2018-11-27T17:48:10.638Z,9.23
2018-11-27T17:53:40.313Z,9.15
2018-11-27T17:59:11.290Z,8.08
2018-11-27T18:04:40.744Z,10.38
2018-11-27T18:10:11.513Z,10.68
2018-11-27T18:15:40.879Z,10.40
2018-11-27T18:21:10.182Z,9.08
2018-11-27T18:26:39.541Z,10.50
2018-11-27T18:32:08.936Z,9.43
2018-11-27T18:37:38.250Z,9.03
2018-11-27T18:43:07.770Z,9.63
2018-11-27T18:48:37.114Z,8.63
2018-11-27T18:54:06.915Z,10.10
2018-11-27T18:59:36.262Z,9.58
2018-11-27T19:05:06.401Z,9.13
2018-11-27T19:10:35.798Z,10.30
2018-11-27T19:16:05.671Z,9.58
2018-11-27T19:21:35.083Z,10.63
2018-11-27T19:27:04.758Z,11.30
2018-11-27T19:32:34.280Z,10.78
2018-11-27T19:38:03.674Z,11.43
2018-11-27T19:43:33.091Z,9.75
2018-11-27T19:49:02.502Z,10.25
2018-11-27T19:54:36.256Z,10.65
2018-11-27T20:00:18.441Z,9.85
2018-11-27T20:05:47.858Z,11.38
2018-11-27T20:11:19.473Z,9.40
2018-11-27T20:16:49.051Z,10.70
2018-11-27T20:22:18.441Z,9.68
2018-11-27T20:27:47.862Z,10.60
2018-11-27T20:33:17.151Z,10.93
2018-11-27T20:38:46.586Z,10.60
2018-11-27T20:44:16.143Z,10.18
2018-11-27T20:49:45.519Z,9.43
2018-11-27T20:55:14.914Z,10.72
2018-11-27T21:00:46.890Z,11.35
2018-11-27T21:06:16.514Z,10.40
2018-11-27T21:11:46.318Z,9.48
2018-11-27T21:17:15.990Z,10.75
2018-11-27T21:22:47.359Z,10.35
2018-11-27T21:28:18.535Z,10.03
2018-11-27T21:33:48.106Z,10.15
2018-11-27T21:39:17.506Z,8.75
2018-11-27T21:44:46.999Z,10.08
2018-11-27T21:50:18.173Z,9.30
2018-11-27T21:55:47.571Z,9.28
2018-11-27T22:01:17.138Z,9.88
2018-11-27T22:06:46.490Z,10.32
2018-11-27T22:12:15.807Z,10.63
2018-11-27T22:17:46.117Z,10.40
2018-11-27T22:23:15.530Z,10.23
2018-11-27T22:28:44.927Z,9.65
2018-11-27T22:34:14.195Z,10.60
2018-11-27T22:39:43.590Z,11.20
2018-11-27T22:45:18.811Z,11.63
2018-11-27T22:50:48.159Z,10.20
2018-11-27T22:56:17.625Z,10.50
2018-11-27T23:01:47.566Z,11.45
2018-11-27T23:07:22.202Z,10.63
2018-11-27T23:12:51.649Z,11.25
2018-11-27T23:18:20.901Z,11.33
2018-11-27T23:23:50.296Z,10.88
2018-11-27T23:29:19.571Z,10.72
2018-11-27T23:34:48.831Z,10.13
2018-11-27T23:40:20.169Z,11.50
2018-11-27T23:45:49.542Z,11.25
2018-11-27T23:51:18.818Z,11.12
2018-11-27T23:56:48.912Z,12.05
